Goodyear, AZ

4:44 AM MST on October 02, 2014 (GMT -0700)
I-10 & Estrella Pkwy. | Change Station
CLOSE
Current Station
Personal Weather Station
Location: Goodyear, AZ
Elevation: 1004 ft
Nearby Weather Stations

Elev 1004 ft 33.46 °N, 112.40 °W | Updated 3 minutes ago

Clear
Clear
68.5 °F
Feels Like 68.5 °F
N
0.0
Wind Variable Wind from North
Gusts 0.0 mph

Today
High -- | Low -- °F
--% Chance of Precip.
Yesterday
High -- | Low -- °F
Precip. -- in
6:24 AM 6:12 PM
First Quarter, 58% visible
Pressure 29.87 in
Visibility 10.0 miles
Clouds Clear
Dew Point Not available.
Humidity Not available.
Rainfall 0.00 in
Snow Depth 0 in , 1 in , 0 in
UV 0.0 out of 12
Pollen 6.40 out of 12
PM2.5 Good
Flu Activity Not available.
METAR KLUF 021058Z AUTO 34008KT 10SM CLR 19/09 A2990 RMK AO2 SLP115 T01930085 $

More Conditions Fewer Conditions

Pressure 29.87 in
Visibility 10.0 miles
Clouds Clear
Dew Point Not available.
Humidity Not available.
Rainfall 0.00 in
Snow Depth 0 in , 1 in , 0 in
UV 0.0 out of 12
Pollen 6.40 out of 12
PM2.5 Good
Flu Activity Not available.
METAR KLUF 021058Z AUTO 34008KT 10SM CLR 19/09 A2990 RMK AO2 SLP115 T01930085 $

More Conditions Fewer Conditions

10-Day Weather Forecast

Almanac

Astronomy

Oct. 02, 2014 Rise Set
Actual Time 6:24 AM MST 6:12 PM MST
Civil Twilight 5:59 AM MST 6:37 PM MST
Nautical Twilight 5:31 AM MST 7:06 PM MST
Astronomical Twilight 5:02 AM MST 7:34 PM MST
Moon 2:06 PM MST 12:01 AM MST
Length of Visible Light 12h 37m
Length of Day
11h 47m
Tomorrow will be 2m 2s shorter.
First Quarter, 58% of the Moon is Illuminated
Today
First Quarter
Oct 8
Full
Oct 15
Last Quarter
Oct 23
New
Oct 30
First Quarter

Today's Extremes

State Highs State Lows

Community

WunderPhotos

Upload Photos

1,758,221 photos uploaded!

WunderBlogs® & News

Nearby

Air Quality

  Air Quality AQ Index Pollutant
Yesterday Moderate
OZONE
Yesterday Good
PM10
Current Good
PM2.5
Thursday Moderate
OZONE
Thursday Good
PM10
Thursday Good
CO
Friday Good
OZONE
Friday Good
PM10
Friday Good
CO

Snow Depth

Station Depth Elevation
Wildcat 0 in 7850 ft
Promontory 1 in 7930 ft
Maverick Fork 0 in 9200 ft
Baker Butte 0 in 7300 ft
White Horse Lake 1 in 7180 ft

Earthquake Activity

City Distance Mag. Time & Date
No recent earthquake activity has been reported nearby.
Minimum magnitude displayed is 2.5.

Coastal Water Temperatures

Place Temperature
No Stations Reporting

Nearby Weather Stations